createdAt,value
2022-09-24T00:01:26.365Z,93646.31
2022-09-24T00:04:00.154Z,93656.91
2022-09-24T00:06:28.019Z,93630.06
2022-09-24T00:08:55.820Z,93662.19
2022-09-24T00:11:25.120Z,93634.72
2022-09-24T00:13:53.057Z,93663.44
2022-09-24T00:16:21.810Z,93667.00
2022-09-24T00:18:48.386Z,93646.50
2022-09-24T00:21:21.119Z,93661.41
2022-09-24T00:23:53.209Z,93628.94
2022-09-24T00:26:39.300Z,93645.38
2022-09-24T00:29:07.207Z,93629.34
2022-09-24T00:31:33.730Z,93648.63
2022-09-24T00:34:01.599Z,93641.81
2022-09-24T00:36:28.151Z,93638.19
2022-09-24T00:38:57.183Z,93651.47
2022-09-24T00:41:27.232Z,93660.63
2022-09-24T00:43:54.060Z,93632.09
2022-09-24T00:46:32.608Z,93616.47
2022-09-24T00:49:04.347Z,93649.00
2022-09-24T00:51:32.978Z,93618.09
2022-09-24T00:54:04.099Z,93643.28
2022-09-24T00:56:33.672Z,93626.03
2022-09-24T00:59:02.538Z,93612.03
2022-09-24T01:01:29.930Z,93611.22
2022-09-24T01:03:58.091Z,93633.47
2022-09-24T01:06:25.733Z,93635.66
2022-09-24T01:08:53.612Z,93607.09
2022-09-24T01:11:47.081Z,93632.38
2022-09-24T01:14:23.103Z,93610.72
2022-09-24T01:17:11.989Z,93617.53
2022-09-24T01:20:14.379Z,93613.50
2022-09-24T01:22:40.728Z,93634.75
2022-09-24T01:25:31.299Z,93607.00
2022-09-24T01:28:31.735Z,93626.72
2022-09-24T01:31:16.413Z,93611.81
2022-09-24T01:33:46.446Z,93600.94
2022-09-24T01:36:15.710Z,93592.50
2022-09-24T01:38:45.099Z,93600.50
2022-09-24T01:41:13.659Z,93587.25
2022-09-24T01:43:40.057Z,93576.91
2022-09-24T01:46:07.363Z,93596.38
2022-09-24T01:48:37.481Z,93587.03
2022-09-24T01:51:22.125Z,93578.00
2022-09-24T01:53:57.478Z,93549.16
2022-09-24T01:56:52.351Z,93565.22
2022-09-24T01:59:48.729Z,93566.03
2022-09-24T02:02:34.440Z,93580.84
2022-09-24T02:05:14.726Z,93582.81
2022-09-24T02:07:53.201Z,93563.47
2022-09-24T02:10:29.759Z,93549.81
2022-09-24T02:12:58.362Z,93557.81
2022-09-24T02:15:32.755Z,93542.13
2022-09-24T02:18:06.105Z,93551.31
2022-09-24T02:20:36.007Z,93528.88
2022-09-24T02:23:04.807Z,93546.88
2022-09-24T02:25:42.126Z,93563.72
2022-09-24T02:28:08.593Z,93541.69
2022-09-24T02:30:42.491Z,93556.13
2022-09-24T02:33:32.452Z,93540.94
2022-09-24T02:35:59.011Z,93538.91
2022-09-24T02:38:25.514Z,93539.69
2022-09-24T02:40:58.363Z,93527.59
2022-09-24T02:43:25.936Z,93535.94
2022-09-24T02:45:52.290Z,93540.34
2022-09-24T02:48:18.730Z,93566.44
2022-09-24T02:50:46.033Z,93554.75
2022-09-24T02:53:12.421Z,93516.72
2022-09-24T02:55:38.809Z,93538.75
2022-09-24T02:58:05.224Z,93539.97
2022-09-24T03:00:32.595Z,93451.00
2022-09-24T03:02:59.235Z,93522.59
2022-09-24T03:05:25.655Z,93523.78
2022-09-24T03:07:52.000Z,93512.19
2022-09-24T03:10:19.006Z,93502.25
2022-09-24T03:12:45.372Z,93501.59
2022-09-24T03:15:11.793Z,93510.97
2022-09-24T03:17:38.161Z,93498.13
2022-09-24T03:20:06.165Z,93488.63
2022-09-24T03:22:32.667Z,93512.72
2022-09-24T03:24:59.044Z,93500.34
2022-09-24T03:27:25.434Z,93522.16
2022-09-24T03:30:10.571Z,93501.38
2022-09-24T03:32:36.944Z,93532.44
2022-09-24T03:35:03.936Z,93490.47
2022-09-24T03:37:30.864Z,93498.44
2022-09-24T03:39:58.308Z,93503.31
2022-09-24T03:42:24.657Z,93506.03
2022-09-24T03:44:54.107Z,93485.63
2022-09-24T03:47:20.464Z,93437.09
2022-09-24T03:49:46.851Z,93490.91
2022-09-24T03:52:13.207Z,93493.66
2022-09-24T03:54:39.566Z,93481.16
2022-09-24T03:57:05.959Z,93479.13
2022-09-24T03:59:32.336Z,93514.09
2022-09-24T04:01:58.741Z,93499.16
2022-09-24T04:04:25.122Z,93481.31
2022-09-24T04:06:52.671Z,93422.72
2022-09-24T04:09:19.039Z,93478.69
2022-09-24T04:11:45.393Z,93488.84
2022-09-24T04:14:11.851Z,93494.69
2022-09-24T04:16:38.310Z,93455.19
2022-09-24T04:19:04.796Z,93496.88
2022-09-24T04:21:31.804Z,93484.63
2022-09-24T04:23:58.174Z,93490.88
2022-09-24T04:26:24.532Z,93476.44
2022-09-24T04:28:50.903Z,93472.72
2022-09-24T04:31:17.348Z,93444.19
2022-09-24T04:33:43.833Z,93464.69
2022-09-24T04:36:10.249Z,93468.50
2022-09-24T04:38:36.659Z,93461.09
2022-09-24T04:41:07.939Z,93500.81
2022-09-24T04:43:36.776Z,93502.84
2022-09-24T04:46:04.069Z,93457.44
2022-09-24T04:48:31.020Z,93469.38
2022-09-24T04:50:57.658Z,93459.78
2022-09-24T04:53:24.835Z,93462.25
2022-09-24T04:55:51.215Z,93487.13
2022-09-24T04:58:19.897Z,93496.19
2022-09-24T05:00:47.616Z,93478.72
2022-09-24T05:03:14.174Z,93472.91
2022-09-24T05:05:40.587Z,93478.56
2022-09-24T05:08:06.988Z,93487.69
2022-09-24T05:10:33.464Z,93460.25
2022-09-24T05:13:00.878Z,93490.09
2022-09-24T05:15:27.375Z,93465.94
2022-09-24T05:17:53.762Z,93446.97
2022-09-24T05:20:20.667Z,93449.97
2022-09-24T05:22:49.500Z,93473.50
2022-09-24T05:25:17.931Z,93466.16
2022-09-24T05:27:49.514Z,93466.03
2022-09-24T05:30:16.719Z,93483.81
2022-09-24T05:32:43.385Z,93454.88
2022-09-24T05:35:10.126Z,93468.53
2022-09-24T05:37:38.330Z,93497.25
2022-09-24T05:40:32.706Z,93475.41
2022-09-24T05:43:01.568Z,93491.06
2022-09-24T05:45:29.725Z,93460.88
2022-09-24T05:47:56.281Z,93493.47
2022-09-24T05:50:22.844Z,93454.75
2022-09-24T05:52:49.290Z,93460.41
2022-09-24T05:55:15.922Z,93459.69
2022-09-24T05:57:42.315Z,93474.53
2022-09-24T06:00:09.245Z,93464.06
2022-09-24T06:02:35.769Z,93471.34
2022-09-24T06:05:02.228Z,93468.13
2022-09-24T06:07:28.599Z,93480.50
2022-09-24T06:09:55.474Z,93469.88
2022-09-24T06:12:23.510Z,93473.66
2022-09-24T06:14:49.975Z,93477.16
2022-09-24T06:17:16.802Z,93469.88
2022-09-24T06:19:43.253Z,93471.91
2022-09-24T06:22:09.611Z,93473.78
2022-09-24T06:24:35.979Z,93469.72
2022-09-24T06:27:02.341Z,93499.72
2022-09-24T06:29:28.719Z,93479.63
2022-09-24T06:31:55.117Z,93483.44
2022-09-24T06:34:21.493Z,93487.66
2022-09-24T06:36:47.857Z,93488.06
2022-09-24T06:39:18.832Z,93502.75
2022-09-24T06:41:46.536Z,93499.94
2022-09-24T06:44:12.912Z,93467.56
2022-09-24T06:46:39.378Z,93498.13
2022-09-24T06:49:05.770Z,93511.00
2022-09-24T06:51:32.124Z,93515.56
2022-09-24T06:53:58.482Z,93535.69
2022-09-24T06:56:24.836Z,93545.28
2022-09-24T06:58:51.250Z,93529.25
2022-09-24T07:01:17.660Z,93529.25
2022-09-24T07:03:44.158Z,93535.25
2022-09-24T07:06:10.562Z,93540.63
2022-09-24T07:08:37.028Z,93549.19
2022-09-24T07:11:04.089Z,93567.56
2022-09-24T07:13:30.594Z,93542.31
2022-09-24T07:15:57.073Z,93560.41
2022-09-24T07:18:23.503Z,93538.94
2022-09-24T07:20:55.327Z,93539.25
2022-09-24T07:23:22.786Z,93551.97
2022-09-24T07:25:50.414Z,93561.59
2022-09-24T07:28:17.274Z,93570.50
2022-09-24T07:30:43.660Z,93564.69
2022-09-24T07:33:10.194Z,93543.84
2022-09-24T07:35:40.095Z,93589.00
2022-09-24T07:38:11.892Z,93592.44
2022-09-24T07:40:38.492Z,93517.97
2022-09-24T07:43:31.999Z,93595.06
2022-09-24T07:45:59.465Z,93559.25
2022-09-24T07:48:28.953Z,93571.97
2022-09-24T07:50:55.889Z,93592.94
2022-09-24T07:53:22.267Z,93580.84
2022-09-24T07:55:59.155Z,93579.25
2022-09-24T07:58:25.617Z,93584.06
2022-09-24T08:00:53.172Z,93563.66
2022-09-24T08:03:20.487Z,93570.34
2022-09-24T08:05:49.229Z,93604.34
2022-09-24T08:08:24.572Z,93599.19
2022-09-24T08:10:51.008Z,93586.69
2022-09-24T08:13:26.868Z,93577.94
2022-09-24T08:16:06.023Z,93614.31
2022-09-24T08:18:32.931Z,93586.78
2022-09-24T08:21:06.344Z,93610.50
2022-09-24T08:23:34.390Z,93601.06
2022-09-24T08:26:02.596Z,93598.78
2022-09-24T08:28:31.340Z,93581.09
2022-09-24T08:31:00.409Z,93590.25
2022-09-24T08:33:29.023Z,93611.19
2022-09-24T08:35:55.486Z,93597.94
2022-09-24T08:38:21.959Z,93582.25
2022-09-24T08:41:10.254Z,93610.34
2022-09-24T08:44:01.993Z,93610.09
2022-09-24T08:47:16.847Z,93591.22
2022-09-24T08:49:58.337Z,93573.19
2022-09-24T08:52:42.661Z,93602.34
2022-09-24T08:55:34.095Z,93579.75
2022-09-24T08:58:17.014Z,93606.16
2022-09-24T09:00:50.081Z,93583.75
2022-09-24T09:03:24.888Z,93604.78
2022-09-24T09:06:01.575Z,93602.31
2022-09-24T09:09:06.426Z,93588.34
2022-09-24T09:11:36.712Z,93607.78
2022-09-24T09:14:51.249Z,93603.66
2022-09-24T09:17:33.891Z,93585.94
2022-09-24T09:20:05.820Z,93584.38
2022-09-24T09:22:39.307Z,93606.28
2022-09-24T09:25:18.219Z,93596.84
2022-09-24T09:27:44.614Z,93608.94
2022-09-24T09:30:16.840Z,93604.16
2022-09-24T09:33:08.676Z,93609.84
2022-09-24T09:35:45.748Z,93619.25
2022-09-24T09:38:40.375Z,93612.31
2022-09-24T09:41:29.151Z,93609.75
2022-09-24T09:44:09.608Z,93591.91
2022-09-24T09:46:43.736Z,93568.44
2022-09-24T09:49:10.585Z,93572.25
2022-09-24T09:51:54.917Z,93578.78
2022-09-24T09:54:43.361Z,93603.69
2022-09-24T09:57:18.891Z,93599.84
2022-09-24T09:59:48.192Z,93592.34
2022-09-24T10:02:24.800Z,93586.03
2022-09-24T10:05:05.504Z,93583.09
2022-09-24T10:07:32.221Z,93592.03
2022-09-24T10:10:20.227Z,93508.88
2022-09-24T10:13:08.837Z,93583.16
2022-09-24T10:15:55.243Z,93566.84
2022-09-24T10:18:30.393Z,93592.47
2022-09-24T10:20:58.679Z,93566.78
2022-09-24T10:23:44.679Z,93581.47
2022-09-24T10:26:11.284Z,93567.75
2022-09-24T10:29:19.608Z,93566.88
2022-09-24T10:32:03.010Z,93589.88
2022-09-24T10:34:29.836Z,93602.84
2022-09-24T10:37:16.711Z,93596.78
2022-09-24T10:39:43.271Z,93584.28
2022-09-24T10:42:26.801Z,93585.19
2022-09-24T10:44:54.265Z,93546.06
2022-09-24T10:47:40.618Z,93586.63
2022-09-24T10:50:32.682Z,93580.75
2022-09-24T10:53:08.436Z,93588.50
2022-09-24T10:55:55.455Z,93587.00
2022-09-24T10:58:59.560Z,93583.22
2022-09-24T11:01:49.305Z,93570.72
2022-09-24T11:05:12.153Z,93588.09
2022-09-24T11:07:57.303Z,93587.78
2022-09-24T11:10:29.902Z,93558.03
2022-09-24T11:13:15.458Z,93562.53
2022-09-24T11:16:11.741Z,93591.47
2022-09-24T11:19:23.286Z,93588.50
2022-09-24T11:22:11.555Z,93560.66
2022-09-24T11:24:56.405Z,93585.13
2022-09-24T11:27:47.119Z,93579.53
2022-09-24T11:30:16.220Z,93580.66
2022-09-24T11:33:13.620Z,93578.63
2022-09-24T11:35:56.513Z,93580.50
2022-09-24T11:38:35.498Z,93547.41
2022-09-24T11:41:14.604Z,93578.09
2022-09-24T11:43:51.532Z,93568.28
2022-09-24T11:46:39.991Z,93568.25
2022-09-24T11:49:50.256Z,93568.81
2022-09-24T11:52:40.826Z,93526.25
2022-09-24T11:55:34.403Z,93568.28
2022-09-24T11:58:19.298Z,93568.19
2022-09-24T12:01:09.028Z,93558.72
2022-09-24T12:03:58.238Z,93537.91
2022-09-24T12:06:52.388Z,93533.59
2022-09-24T12:09:41.186Z,93550.50
2022-09-24T12:12:22.872Z,93558.47
2022-09-24T12:15:02.694Z,93530.72
2022-09-24T12:17:39.277Z,93551.06
2022-09-24T12:20:30.525Z,93528.88
2022-09-24T12:23:04.234Z,93547.56
2022-09-24T12:26:00.876Z,93555.09
2022-09-24T12:28:52.995Z,93548.34
2022-09-24T12:32:22.757Z,93511.97
2022-09-24T12:34:59.007Z,93540.84
2022-09-24T12:37:31.856Z,93492.50
2022-09-24T12:40:16.841Z,93510.16
2022-09-24T12:42:49.634Z,93536.16
2022-09-24T12:45:21.017Z,93497.38
2022-09-24T12:47:54.095Z,93534.72
2022-09-24T12:50:38.910Z,93514.94
2022-09-24T12:53:24.688Z,93504.13
2022-09-24T12:55:52.531Z,93519.88
2022-09-24T12:58:41.126Z,93527.22
2022-09-24T13:01:26.751Z,93538.47
2022-09-24T13:04:15.041Z,93531.44
2022-09-24T13:06:46.482Z,93529.53
2022-09-24T13:09:34.227Z,93537.50
2022-09-24T13:12:03.326Z,93533.06
2022-09-24T13:14:32.420Z,93524.13
2022-09-24T13:17:05.103Z,93494.56
2022-09-24T13:19:42.474Z,93510.69
2022-09-24T13:22:25.246Z,93499.34
2022-09-24T13:25:04.470Z,93536.09
2022-09-24T13:27:30.775Z,93520.63
2022-09-24T13:30:08.237Z,93514.34
2022-09-24T13:32:50.911Z,93511.00
2022-09-24T13:35:24.383Z,93495.38
2022-09-24T13:37:57.241Z,93495.91
2022-09-24T13:40:29.871Z,93521.22
2022-09-24T13:43:04.066Z,93503.53
2022-09-24T13:45:36.948Z,93524.38
2022-09-24T13:48:35.726Z,93485.34
2022-09-24T13:51:11.159Z,93520.44
2022-09-24T13:53:45.127Z,93523.94
2022-09-24T13:56:20.026Z,93507.44
2022-09-24T13:58:51.108Z,93520.69
2022-09-24T14:01:43.685Z,93511.41
2022-09-24T14:04:20.580Z,93520.13
2022-09-24T14:06:52.719Z,93507.91
2022-09-24T14:09:27.104Z,93518.66
2022-09-24T14:11:56.421Z,93516.28
2022-09-24T14:14:27.884Z,93503.97
2022-09-24T14:17:05.327Z,93516.72
2022-09-24T14:19:34.426Z,93506.81
2022-09-24T14:22:03.090Z,93509.25
2022-09-24T14:25:00.160Z,93503.31
2022-09-24T14:27:28.559Z,93498.16
2022-09-24T14:29:58.107Z,93509.16
2022-09-24T14:32:38.138Z,93507.41
2022-09-24T14:35:06.342Z,93514.19
2022-09-24T14:37:39.524Z,93499.19
2022-09-24T14:40:15.386Z,93472.50
2022-09-24T14:43:03.257Z,93511.41
2022-09-24T14:45:37.780Z,93480.09
2022-09-24T14:48:34.398Z,93516.19
2022-09-24T14:51:00.915Z,93493.19
2022-09-24T14:53:35.957Z,93501.66
2022-09-24T14:56:26.244Z,93502.28
2022-09-24T14:58:52.797Z,93479.81
2022-09-24T15:01:23.461Z,93497.75
2022-09-24T15:03:53.155Z,93500.78
2022-09-24T15:06:26.080Z,93492.59
2022-09-24T15:09:02.019Z,93494.56
2022-09-24T15:11:34.526Z,93469.47
2022-09-24T15:14:36.112Z,93496.50
2022-09-24T15:17:22.930Z,93497.31
2022-09-24T15:19:54.672Z,93483.09
2022-09-24T15:22:26.606Z,93454.63
2022-09-24T15:25:00.278Z,93499.94
2022-09-24T15:27:38.334Z,93475.22
2022-09-24T15:30:10.506Z,93502.50
2022-09-24T15:32:37.155Z,93470.41
2022-09-24T15:35:09.419Z,93485.19
2022-09-24T15:37:39.463Z,93483.66
2022-09-24T15:40:09.473Z,93479.13
2022-09-24T15:42:35.893Z,93465.69
2022-09-24T15:45:02.255Z,93465.69
2022-09-24T15:47:28.670Z,93462.47
2022-09-24T15:49:55.050Z,93465.69
2022-09-24T15:52:31.768Z,93473.88
2022-09-24T15:55:00.771Z,93465.69
2022-09-24T15:57:27.432Z,93467.03
2022-09-24T15:59:54.272Z,93468.63
2022-09-24T16:02:33.319Z,93480.59
2022-09-24T16:05:03.549Z,93485.88
2022-09-24T16:07:31.700Z,93469.75
2022-09-24T16:09:59.266Z,93461.56
2022-09-24T16:12:28.162Z,93472.34
2022-09-24T16:14:59.029Z,93468.00
2022-09-24T16:17:30.796Z,93436.56
2022-09-24T16:19:58.325Z,93441.13
2022-09-24T16:22:25.028Z,93458.06
2022-09-24T16:24:54.143Z,93479.41
2022-09-24T16:27:27.506Z,93471.41
2022-09-24T16:29:53.969Z,93456.78
2022-09-24T16:32:21.411Z,93464.31
2022-09-24T16:34:49.917Z,93461.34
2022-09-24T16:37:18.346Z,93460.09
2022-09-24T16:39:45.983Z,93464.94
2022-09-24T16:42:12.393Z,93475.41
2022-09-24T16:44:38.824Z,93412.28
2022-09-24T16:47:05.233Z,93423.47
2022-09-24T16:49:42.767Z,93448.38
2022-09-24T16:52:09.149Z,93468.44
2022-09-24T16:54:36.742Z,93460.00
2022-09-24T16:57:10.232Z,93472.25
2022-09-24T16:59:47.897Z,93481.25
2022-09-24T17:02:14.399Z,93473.03
2022-09-24T17:04:41.663Z,93471.06
2022-09-24T17:07:13.265Z,93484.44
2022-09-24T17:10:00.621Z,93445.72
2022-09-24T17:12:29.235Z,93452.69
2022-09-24T17:14:57.565Z,93444.47
2022-09-24T17:17:25.950Z,93468.22
2022-09-24T17:19:52.339Z,93455.19
2022-09-24T17:22:18.797Z,93467.44
2022-09-24T17:24:45.201Z,93435.22
2022-09-24T17:27:11.682Z,93457.94
2022-09-24T17:29:38.098Z,93462.59
2022-09-24T17:32:04.530Z,93456.91
2022-09-24T17:34:31.901Z,93451.97
2022-09-24T17:37:00.386Z,93471.41
2022-09-24T17:39:28.102Z,93468.38
2022-09-24T17:41:54.520Z,93451.56
2022-09-24T17:44:21.976Z,93457.84
2022-09-24T17:46:52.466Z,93496.69
2022-09-24T17:49:26.035Z,93485.03
2022-09-24T20:03:07.024Z,93527.97
2022-09-24T20:05:34.641Z,93507.53
2022-09-24T20:08:03.415Z,93505.16
2022-09-24T20:10:31.269Z,93505.59
2022-09-24T20:12:58.246Z,93508.81
2022-09-24T20:15:24.793Z,93494.38
2022-09-24T20:17:52.632Z,93496.41
2022-09-24T20:20:19.120Z,93515.28
2022-09-24T20:22:45.490Z,93513.28
2022-09-24T20:25:15.294Z,93528.56
2022-09-24T20:27:55.349Z,93495.31
2022-09-24T20:30:23.469Z,93522.97
2022-09-24T20:32:50.698Z,93518.94
2022-09-24T20:35:17.461Z,93513.75
2022-09-24T20:37:44.502Z,93524.19
2022-09-24T20:40:11.102Z,93498.31
2022-09-24T20:42:38.496Z,93523.78
2022-09-24T20:45:06.785Z,93541.03
2022-09-24T20:47:33.313Z,93504.53
2022-09-24T20:49:59.700Z,93495.91
2022-09-24T20:52:26.100Z,93510.94
2022-09-24T20:54:54.557Z,93506.94
2022-09-24T20:57:20.967Z,93507.75
2022-09-24T20:59:48.063Z,93515.75
2022-09-24T21:02:15.468Z,93516.97
2022-09-24T21:04:42.005Z,93525.00
2022-09-24T21:07:08.402Z,93505.31
2022-09-24T21:09:34.819Z,93504.50
2022-09-24T21:12:03.551Z,93517.16
2022-09-24T21:14:29.958Z,93530.22
2022-09-24T21:16:56.483Z,93524.59
2022-09-24T21:19:22.895Z,93526.19
2022-09-24T21:21:49.277Z,93515.75
2022-09-24T21:24:16.204Z,93520.75
2022-09-24T21:26:45.063Z,93535.81
2022-09-24T21:29:16.529Z,93533.03
2022-09-24T21:31:45.934Z,93543.84
2022-09-24T21:34:14.256Z,93518.34
2022-09-24T21:36:44.607Z,93543.44
2022-09-24T21:39:18.991Z,93535.38
2022-09-24T21:41:49.898Z,93502.06
2022-09-24T21:44:17.690Z,93541.03
2022-09-24T21:46:44.665Z,93520.56
2022-09-24T21:49:11.853Z,93531.38
2022-09-24T21:51:43.371Z,93496.84
2022-09-24T21:54:14.089Z,93533.56
2022-09-24T21:56:40.510Z,93518.09
2022-09-24T21:59:26.881Z,93516.69
2022-09-24T22:01:54.466Z,93523.66
2022-09-24T22:04:21.737Z,93524.44
2022-09-24T22:06:48.684Z,93509.53
2022-09-24T22:09:15.819Z,93528.44
2022-09-24T22:11:42.955Z,93515.28
2022-09-24T22:14:10.335Z,93511.31
2022-09-24T22:16:36.844Z,93512.91
2022-09-24T22:19:06.066Z,93527.34
2022-09-24T22:21:34.257Z,93520.09
2022-09-24T22:24:01.171Z,93523.72
2022-09-24T22:26:29.503Z,93504.91
2022-09-24T22:28:56.615Z,93524.09
2022-09-24T22:31:23.238Z,93495.66
2022-09-24T22:34:08.418Z,93495.66
2022-09-24T22:36:36.092Z,93516.09
2022-09-24T22:39:05.061Z,93508.06
2022-09-24T22:41:32.642Z,93518.09
2022-09-24T22:43:59.355Z,93493.63
2022-09-24T22:46:26.963Z,93515.09
2022-09-24T22:48:54.758Z,93487.19
2022-09-24T22:51:21.260Z,93500.47
2022-09-24T22:53:47.663Z,93517.97
2022-09-24T22:56:16.967Z,93512.50
2022-09-24T22:58:45.046Z,93513.72
2022-09-24T23:01:13.567Z,93527.75
2022-09-24T23:03:41.033Z,93512.53
2022-09-24T23:06:08.283Z,93497.06
2022-09-24T23:08:36.862Z,93514.09
2022-09-24T23:11:20.117Z,93517.28
2022-09-24T23:13:52.576Z,93505.50
2022-09-24T23:16:25.529Z,93506.88
2022-09-24T23:18:55.488Z,93513.34
2022-09-24T23:21:24.007Z,93522.56
2022-09-24T23:23:55.026Z,93509.38
2022-09-24T23:26:22.891Z,93524.41
2022-09-24T23:28:52.705Z,93508.16
2022-09-24T23:31:22.145Z,93490.09
2022-09-24T23:33:49.792Z,93481.47
2022-09-24T23:36:16.506Z,93483.69
2022-09-24T23:38:43.854Z,93494.31
2022-09-24T23:41:12.900Z,93512.56
2022-09-24T23:43:40.993Z,93520.00
2022-09-24T23:46:08.274Z,93509.75
2022-09-24T23:48:35.080Z,93514.56
2022-09-24T23:51:01.481Z,93496.13
2022-09-24T23:53:27.929Z,93478.41
2022-09-24T23:55:55.336Z,93506.53
2022-09-24T23:58:23.536Z,93508.53
